Atyray, Kazakhstan

7:26 PM AQTT on September 17, 2014 (GMT +0500)
Atyrau | Change Station
CLOSE
Current Station
Airport
Location: Atyrau,
Elevation: -72 ft
Nearby Weather Stations

Elev -72 ft 47.12 °N, 51.83 °E | Updated 26 minutes ago

Clear
Clear
59 °F
Feels Like 59 °F
N
18
Wind Variable Wind from North

Today
High -- | Low -- °F
--% Chance of Precip.
Yesterday
High -- | Low -- °F
Precip. -- in
7:12 AM 7:40 PM
Waning Crescent, 35% visible
Pressure 30.04 in
Visibility -9999.0 miles
Clouds
Dew Point 16 °F
Humidity 19%
Rainfall 0.00 in
Snow Depth Not available.
UV Not available.
Pollen Not available.
Air Quality Not available.
Flu Activity Not available.
METAR UATG 171400Z 36008MPS CAVOK 15/M09 Q1017 R32/CLRD70 NOSIG RMK QFE765/1020

More Conditions Fewer Conditions

Pressure 30.04 in
Visibility -9999.0 miles
Clouds
Dew Point 16 °F
Humidity 19%
Rainfall 0.00 in
Snow Depth Not available.
UV Not available.
Pollen Not available.
Air Quality Not available.
Flu Activity Not available.
METAR UATG 171400Z 36008MPS CAVOK 15/M09 Q1017 R32/CLRD70 NOSIG RMK QFE765/1020

More Conditions Fewer Conditions

10-Day Weather Forecast

Almanac

Astronomy

Sep. 17, 2014 Rise Set
Actual Time 7:12 AM AQTT 7:40 PM AQTT
Civil Twilight 6:41 AM AQTT 8:11 PM AQTT
Nautical Twilight 6:05 AM AQTT 8:47 PM AQTT
Astronomical Twilight 5:27 AM AQTT 9:25 PM AQTT
Moon 12:35 AM AQTT 3:49 PM AQTT
Length of Visible Light 13h 30m
Length of Day
12h 28m
Tomorrow will be 3m 21s shorter.
Waning Crescent, 35% of the Moon is Illuminated
Today
Waning Crescent
Sep 24
New
Oct 1
First Quarter
Oct 8
Full
Oct 15
Last Quarter

Yesterday's Extremes

Country Highs Country Lows

Community

WunderPhotos

Upload Photos

1,754,049 photos uploaded!

WunderBlogs® & News

By Dr. Jeff Masters
Director of Meteorology, Weather Underground
By Kari Strenfel
Meteorologist, Weather Underground
By Christopher C. Burt
Weather Historian, Weather Underground
September 17, 2014
September 17, 2014
September 17, 2014

Nearby

Snow Depth

Not available.

Earthquake Activity

City Distance Mag. Time & Date
No recent earthquake activity has been reported nearby.
Minimum magnitude displayed is 2.5.

Coastal Water Temperatures

Place Temperature
No Stations Reporting

Nearby Weather Stations